AirNav   Bose Proflight Series 2 Wireless Aviation Headset
 
 468 users online  

83MO North Kansas City Hospital Heliport
North Kansas City, Missouri, USA

GOING TO NORTH KANSAS CITY?


FAA INFORMATION EFFECTIVE 07 NOVEMBER 2019

Location

FAA Identifier: 83MO
Lat/Long: 39-09-03.6800N 094-33-02.1200W
39-09.061333N 094-33.035333W
39.1510222,-94.5505889
(estimated)
Elevation: 411 ft. / 125 m (estimated)
Variation: 05E (1985)
Time zone: UTC -6 (UTC -5 during Daylight Saving Time)
Zip code: 64116

Heliport Operations

Heliport use: Private use, MEDICAL.
Activation date: 04/1983
Control tower: no
ARTCC: KANSAS CITY CENTER
FSS: COLUMBIA FLIGHT SERVICE STATION
Attendance: UNATNDD
Wind indicator: lighted
Segmented circle: yes
Lights: FOR PERIMETER LGTS CALL 816-346-7000.

Heliport Communications

WX ASOS at MKC (2.6 nm SW): PHONE 816-329-2843
WX ASOS at MCI (12 nm NW): PHONE 816-329-2808
WX ASOS at LXT (14 nm SE): 124.175 (816-347-9807)
WX AWOS-3 at GPH (16 nm NE): 120.275 (816-407-3399)

Nearby radio navigation aids

VOR radial/distance  VOR name  Freq  Var
MCIr128/11.8KANSAS CITY VORTAC113.2505E
ANXr273/19.9NAPOLEON VORTAC114.0007E

Heliport Services

Runway Information

Helipad H1

Dimensions: 45 x 45 ft. / 14 x 14 m
Surface: concrete
Runway edge lights: PERI
Latitude: 39-09.061333N
Longitude: 094-33.035333W
Elevation: 411.0 ft.
Traffic pattern: leftleft

Heliport Ownership and Management from official FAA records

Ownership: Privately-owned
Owner: NORTH KANSAS CITY HOSPITAL
2800 CLAY EDWARDS DR
NORTH KANSAS CITY, MO 64116
Phone 816-691-2000
Manager: JERALD L. HUSMAN, VP
2800 CLAY EDWARDS DR.
NORTH KANSAS CITY, MO 64116
Phone 816-691-5280

Additional Remarks

E111-1 CONT: EXISTING PAD IS ABNDD UPON ACTVTN OF THIS SITE.
A52-H1 BLDGS W & SW; PLINES W, E, &N.
OWNER DESIRES HELIPORT NOT BE CHARTED.
FOR CD CTC KANSAS CITY APCH AT 816-329-2710.

Instrument Procedures

There are no published instrument procedures at 83MO.

Some nearby airports with instrument procedures:

KMKC - Charles B Wheeler Downtown Airport (3 nm SW)
KMCI - Kansas City International Airport (12 nm NW)
KLXT - Lee's Summit Municipal Airport (14 nm SE)
KGPH - Midwest National Air Center Airport (16 nm NE)
3GV - East Kansas City Airport (18 nm SE)
3EX - Excelsior Springs Memorial Airport (20 nm NE)
 
Loc | Ops | Rwys | IFR | FBO | Links
Com | Nav | Svcs | Stats | Notes

Kansas City Aviation Department
 
Area around 83MO (North Kansas City Hospital Heliport)
 
Road maps at: MapQuest Bing Google
 
Aerial photo
No photo
 
Sectional chart

 
Airport distance calculator
Flying to North Kansas City Hospital Heliport? Find the distance to fly.

From to 83MO

Sunrise and sunset
Times for 19-Nov-2019
 Local
(UTC-6)
 Zulu
(UTC)
Morning civil twilight06:3812:38
Sunrise07:0713:07
Sunset17:0023:00
Evening civil twilight17:2923:29

Current date and time
Zulu (UTC)  19-Nov-2019 08:35:03
Local (UTC-6)  19-Nov-2019 02:35:03
 
METAR
KMKC 
3nm SW 
190754Z AUTO 31006KT 10SM CLR 10/04 A2980 RMK AO2 SLP090 T01000039
KMCI 
12nm NW 
190753Z 32009KT 10SM CLR 09/04 A2980 RMK AO2 SLP090 T00890044 $
KLXT 
14nm SE 
190753Z AUTO 33010KT 10SM CLR 11/04 A2980 RMK AO2 SLP092 T01060039
KGPH 
16nm NE 
190815Z AUTO 30004KT 10SM CLR 08/04 A2980 RMK AO2
KOJC 
20nm SW 
190753Z AUTO 33009G17KT 10SM CLR 09/05 A2981 RMK AO2 SLP094 T00940050
TAF
KMKC 
3nm SW 
190520Z 1906/2006 30005KT P6SM SKC FM191700 VRB05KT P6SM SCT250
KMCI 
12nm NW 
190520Z 1906/2006 30008KT P6SM SKC FM191600 26007KT P6SM SCT250 FM192100 VRB06KT P6SM SCT250
NOTAMs
Click for the latest NOTAMs
NOTAMs are issued by the DoD/FAA and will open in a separate window not controlled by AirNav.

 

 
 

Would you like to see your business listed on this page?

 If your business provides an interesting product or service to pilots, flight crews, aircraft, or users of the North Kansas City Hospital Heliport, you should consider listing it here.  To start the listing process, click on the button below
 
Add a business
 

Other Pages about North Kansas City Hospital Heliport

Update a link
 
Copyright © AirNav, LLC. All rights reserved. Privacy Policy  Contact